HEAR

El Arish International Airport

El Arish, Egypt
TAF HEAR 241700Z 2418/2524 34009KT CAVOK
Issued Valid From Valid To
Sep-24 @ 17:00 UTC
(2 hours ago)
Sep-24 @ 18:00 UTC
(an hour ago)
Sep-26 @ 00:00 UTC
(-1 days ago)
Sep-24 @ 18:00 to Sep-26 @ 00:00
TAF HEAR 241700Z 2418/2524 34009KT CAVOK
Wind Visibility Clouds Conditions
340° at 9 knots 10,000+ meters
  • No significant clouds
TAF HEAR 241700Z 2418/2524 34009KT CAVOK
Issued Sep-24 @ 17:00 UTC
(2 hours ago)
Valid From Sep-24 @ 18:00 UTC
(an hour ago)
Valid To Sep-26 @ 00:00 UTC
(-1 days ago)
Sep-24 @ 18:00 - Sep-26 @ 00:00
Wind Visibility
340° at 9 knots 10,000+ meters
Clouds
  • No significant clouds
Conditions